Time;durP1;ratioP1;P1;durP2;ratioP2;P2;SDS_P1;SDS_P2;PMS_P1;PMS_P2;Temp;Humidity;BMP_temperature;BMP_pressure;BME280_temperature;BME280_humidity;BME280_pressure;Samples;Min_cycle;Max_cycle;Signal;HPM_P1;HPM_P2
2022/04/06 00:00:03;;;;;;;34.20;14.15;;;9.10;99.90;;;;;;5051616;28;20061;-43
2022/04/06 00:02:31;;;;;;;40.38;13.82;;;9.10;99.90;;;;;;5052781;28;20416;-44
2022/04/06 00:05:00;;;;;;;39.15;13.18;;;9.10;99.90;;;;;;5052881;28;20049;-43
2022/04/06 00:07:27;;;;;;;32.85;13.10;;;9.10;99.90;;;;;;5051668;28;20459;-44
2022/04/06 00:09:53;;;;;;;34.70;14.13;;;9.10;99.90;;;;;;5048683;28;20059;-43
2022/04/06 00:12:20;;;;;;;35.70;13.43;;;9.10;99.90;;;;;;5051365;28;20503;-43
2022/04/06 00:14:47;;;;;;;37.00;14.23;;;9.10;99.90;;;;;;5052878;28;20059;-43
2022/04/06 00:17:14;;;;;;;35.83;13.30;;;9.10;99.90;;;;;;5052347;28;20049;-44
2022/04/06 00:19:42;;;;;;;37.42;13.93;;;9.10;99.90;;;;;;5050955;28;20448;-45
2022/04/06 00:22:09;;;;;;;32.20;13.35;;;9.10;99.90;;;;;;5044731;28;20052;-44
2022/04/06 00:24:35;;;;;;;28.25;12.90;;;9.10;99.90;;;;;;5052718;28;20075;-44
2022/04/06 00:27:02;;;;;;;39.47;14.00;;;9.10;99.90;;;;;;5051620;28;20084;-45
2022/04/06 00:29:29;;;;;;;37.70;13.60;;;9.10;99.90;;;;;;5050663;28;20508;-44
2022/04/06 00:31:55;;;;;;;32.75;14.23;;;9.10;99.90;;;;;;5048357;28;20076;-44
2022/04/06 00:35:28;;;;;;;32.58;14.63;;;9.10;99.90;;;;;;5048789;28;20044;-45
2022/04/06 00:37:11;;;;;;;33.25;15.77;;;9.10;99.90;;;;;;5047784;28;20066;-44
2022/04/06 00:39:37;;;;;;;38.38;15.98;;;9.10;99.90;;;;;;5048562;28;20051;-44
2022/04/06 00:42:05;;;;;;;38.10;16.08;;;9.10;99.90;;;;;;5052463;28;20049;-44
2022/04/06 00:44:34;;;;;;;33.97;16.02;;;9.10;99.90;;;;;;5045968;28;20052;-44
2022/04/06 00:47:02;;;;;;;31.70;15.77;;;9.10;99.90;;;;;;5046479;28;20055;-44
2022/04/06 00:49:29;;;;;;;40.60;15.63;;;9.10;99.90;;;;;;5047274;28;20509;-46
2022/04/06 00:51:56;;;;;;;33.92;15.90;;;9.10;99.90;;;;;;5051529;28;20412;-45
2022/04/06 00:54:24;;;;;;;33.47;15.85;;;9.10;99.90;;;;;;5051523;28;20066;-45
2022/04/06 00:56:50;;;;;;;32.35;16.20;;;9.10;99.90;;;;;;5051206;28;20049;-44
2022/04/06 00:59:17;;;;;;;36.03;16.25;;;9.10;99.90;;;;;;5051936;28;20393;-44
2022/04/06 01:01:45;;;;;;;45.00;16.77;;;9.10;99.90;;;;;;5050533;28;20504;-45
2022/04/06 01:04:11;;;;;;;36.20;15.20;;;9.10;99.90;;;;;;5051444;28;20053;-45
2022/04/06 01:06:38;;;;;;;39.97;15.00;;;9.10;99.90;;;;;;5050316;28;20052;-44
2022/04/06 01:09:05;;;;;;;42.47;15.07;;;9.10;99.90;;;;;;5052046;28;20048;-44
2022/04/06 01:11:33;;;;;;;39.83;16.40;;;9.10;99.90;;;;;;5045254;28;20049;-44
2022/04/06 01:13:59;;;;;;;36.53;15.35;;;9.10;99.90;;;;;;5052145;28;20124;-45
2022/04/06 01:16:26;;;;;;;34.20;14.38;;;9.10;99.90;;;;;;5050771;28;20565;-44
2022/04/06 01:18:53;;;;;;;40.35;15.45;;;9.10;99.90;;;;;;5051420;28;20106;-44
2022/04/06 01:21:19;;;;;;;38.42;15.40;;;9.10;99.90;;;;;;5050656;28;20583;-44
2022/04/06 01:23:47;;;;;;;33.90;14.45;;;9.20;99.90;;;;;;5051492;28;20063;-45
2022/04/06 01:26:14;;;;;;;37.20;14.25;;;9.00;99.90;;;;;;5044604;28;20060;-44
2022/04/06 01:28:41;;;;;;;38.58;14.95;;;9.00;99.90;;;;;;5033005;28;20090;-45
2022/04/06 01:31:08;;;;;;;36.60;14.57;;;9.10;99.90;;;;;;5051588;28;20123;-44
2022/04/06 01:33:35;;;;;;;36.53;13.80;;;9.00;99.90;;;;;;5051994;28;20045;-45
2022/04/06 01:36:02;;;;;;;34.38;13.00;;;9.00;99.90;;;;;;5051855;28;20536;-44
2022/04/06 01:38:28;;;;;;;35.70;13.65;;;9.00;99.90;;;;;;5046939;28;20061;-44
2022/04/06 01:40:56;;;;;;;39.17;12.68;;;9.10;99.90;;;;;;5051453;28;20132;-45
2022/04/06 01:43:23;;;;;;;34.15;12.63;;;9.00;99.90;;;;;;5051151;28;20481;-45
2022/04/06 01:45:50;;;;;;;33.95;12.73;;;9.10;99.90;;;;;;5050231;28;20049;-44
2022/04/06 01:48:17;;;;;;;33.22;12.68;;;9.10;99.90;;;;;;5052735;28;20094;-45
2022/04/06 01:53:28;;;;;;;26.15;10.63;;;9.10;99.90;;;;;;5055185;28;20140;-44
2022/04/06 01:55:56;;;;;;;34.97;12.43;;;9.00;99.90;;;;;;5053033;28;20061;-44
2022/04/06 01:58:23;;;;;;;32.35;11.70;;;9.10;99.90;;;;;;5055071;28;20045;-44
2022/04/06 02:00:50;;;;;;;35.33;12.93;;;9.10;99.90;;;;;;5048845;28;20504;-44
2022/04/06 02:03:16;;;;;;;35.08;12.27;;;9.10;99.90;;;;;;5055497;28;20396;-44
2022/04/06 02:05:43;;;;;;;36.40;12.52;;;9.10;99.90;;;;;;5054276;28;20053;-44
2022/04/06 02:08:10;;;;;;;32.53;12.75;;;9.10;99.90;;;;;;5055504;28;20051;-44
2022/04/06 02:10:38;;;;;;;31.45;11.40;;;9.10;99.90;;;;;;5044326;28;20453;-45
2022/04/06 02:13:06;;;;;;;27.52;10.68;;;9.10;99.90;;;;;;5048621;28;20495;-45
2022/04/06 02:15:33;;;;;;;25.88;10.38;;;9.00;99.90;;;;;;5050955;28;20053;-44
2022/04/06 02:18:00;;;;;;;21.70;9.02;;;9.00;99.90;;;;;;5053178;28;20060;-44
2022/04/06 02:20:27;;;;;;;31.58;10.35;;;9.10;99.90;;;;;;5054315;28;20076;-45
2022/04/06 02:22:54;;;;;;;26.90;9.73;;;9.10;99.90;;;;;;5054732;28;20080;-44
2022/04/06 02:25:20;;;;;;;27.13;9.07;;;9.10;99.90;;;;;;5053062;28;20553;-44
2022/04/06 02:27:47;;;;;;;35.03;9.85;;;9.00;99.90;;;;;;5051390;28;20779;-44
2022/04/06 02:30:16;;;;;;;30.65;9.23;;;9.00;99.90;;;;;;5053586;28;20390;-44
2022/04/06 02:32:42;;;;;;;30.33;9.40;;;9.00;99.90;;;;;;5053366;28;20045;-44
2022/04/06 02:35:09;;;;;;;33.08;10.52;;;9.00;99.90;;;;;;5054768;28;20060;-44
2022/04/06 02:37:36;;;;;;;27.50;8.02;;;9.00;99.90;;;;;;5045727;28;20120;-44
2022/04/06 02:40:04;;;;;;;25.38;7.78;;;9.00;99.90;;;;;;5054447;28;20053;-44
2022/04/06 02:42:31;;;;;;;25.42;8.27;;;9.00;99.90;;;;;;5054086;28;20486;-45
2022/04/06 02:44:58;;;;;;;17.77;6.95;;;9.00;99.90;;;;;;5054578;28;20051;-44
2022/04/06 02:47:26;;;;;;;26.30;7.90;;;9.00;99.90;;;;;;5054311;28;20049;-44
2022/04/06 02:49:52;;;;;;;23.83;8.43;;;9.00;99.90;;;;;;5053171;28;20481;-44
2022/04/06 02:52:19;;;;;;;25.95;7.97;;;9.00;99.90;;;;;;5052152;28;20128;-43
2022/04/06 02:54:46;;;;;;;24.92;8.18;;;9.00;99.90;;;;;;5051919;28;20063;-44
2022/04/06 02:57:12;;;;;;;23.85;8.00;;;9.00;99.90;;;;;;5052600;28;20495;-43
2022/04/06 02:59:40;;;;;;;27.10;8.55;;;9.00;99.90;;;;;;5052556;28;20055;-44
2022/04/06 03:02:07;;;;;;;29.13;8.48;;;9.00;99.90;;;;;;5054321;28;20041;-45
2022/04/06 03:04:35;;;;;;;33.30;10.20;;;9.00;99.90;;;;;;5051959;28;20433;-43
2022/04/06 03:07:01;;;;;;;34.28;10.10;;;9.00;99.90;;;;;;5050459;28;20057;-44
2022/04/06 03:09:29;;;;;;;39.67;10.30;;;9.00;99.90;;;;;;5049076;28;20041;-44
2022/04/06 03:11:55;;;;;;;30.42;9.95;;;9.00;99.90;;;;;;5047909;28;20049;-44
2022/04/06 03:14:22;;;;;;;32.78;10.55;;;9.00;99.90;;;;;;5053879;28;20495;-44
2022/04/06 03:16:49;;;;;;;38.65;11.07;;;9.00;99.90;;;;;;5052054;28;20071;-44
2022/04/06 03:19:15;;;;;;;30.25;10.50;;;9.00;99.90;;;;;;5052901;28;20037;-44
2022/04/06 03:21:43;;;;;;;36.50;10.52;;;8.90;99.90;;;;;;5053321;28;20045;-45
2022/04/06 03:24:10;;;;;;;32.88;10.48;;;9.00;99.90;;;;;;5052232;28;20040;-44
2022/04/06 03:26:37;;;;;;;40.40;11.40;;;9.00;99.90;;;;;;5053628;28;20049;-44
2022/04/06 03:29:03;;;;;;;35.55;11.25;;;9.00;99.90;;;;;;5053928;28;20051;-43
2022/04/06 03:31:30;;;;;;;38.10;11.90;;;9.00;99.90;;;;;;5051773;28;20378;-44
2022/04/06 03:33:57;;;;;;;39.80;12.70;;;9.00;99.90;;;;;;5052603;28;20060;-44
2022/04/06 03:36:24;;;;;;;40.97;12.60;;;9.00;99.90;;;;;;5053389;28;20092;-43
2022/04/06 03:38:52;;;;;;;43.92;13.02;;;9.00;99.90;;;;;;5033731;28;20481;-44
2022/04/06 03:41:18;;;;;;;49.05;13.02;;;9.00;99.90;;;;;;5049368;28;20049;-44
2022/04/06 03:43:45;;;;;;;40.20;13.02;;;9.10;99.90;;;;;;5053477;28;20124;-43
2022/04/06 03:46:13;;;;;;;45.17;13.95;;;9.00;99.90;;;;;;5053129;28;20051;-46
2022/04/06 03:48:40;;;;;;;36.17;12.85;;;9.10;99.90;;;;;;5052477;28;20044;-45
2022/04/06 03:51:06;;;;;;;38.92;13.88;;;9.10;99.90;;;;;;5052721;28;20135;-45
2022/04/06 03:53:33;;;;;;;44.30;13.98;;;9.10;99.90;;;;;;5051403;28;20136;-44
2022/04/06 03:56:01;;;;;;;38.55;14.52;;;9.10;99.90;;;;;;5048735;28;20063;-44
2022/04/06 03:58:29;;;;;;;43.28;14.30;;;9.10;99.90;;;;;;5047568;28;20147;-44
2022/04/06 04:00:55;;;;;;;33.53;14.13;;;9.10;99.90;;;;;;5045467;28;20197;-45
2022/04/06 04:03:22;;;;;;;36.33;14.18;;;9.10;99.90;;;;;;5046349;28;20071;-46
2022/04/06 04:05:49;;;;;;;34.28;13.75;;;9.10;99.90;;;;;;5051809;28;20055;-45
2022/04/06 04:08:15;;;;;;;34.15;14.20;;;9.10;99.90;;;;;;5051472;28;20055;-43
2022/04/06 04:10:42;;;;;;;41.90;13.57;;;9.10;99.90;;;;;;5048447;28;20057;-46
2022/04/06 04:13:11;;;;;;;39.10;14.32;;;9.10;99.90;;;;;;5051185;28;20053;-45
2022/04/06 04:15:38;;;;;;;33.50;13.05;;;9.20;99.90;;;;;;5050128;28;20057;-45
2022/04/06 04:18:05;;;;;;;31.90;12.60;;;9.20;99.90;;;;;;5051450;28;20556;-42
2022/04/06 04:20:31;;;;;;;37.30;12.73;;;9.20;99.90;;;;;;5049322;28;20083;-43
2022/04/06 04:22:58;;;;;;;34.78;13.32;;;9.20;99.90;;;;;;5051313;28;20041;-44
2022/04/06 04:25:25;;;;;;;35.22;12.13;;;9.20;99.90;;;;;;5051706;28;20045;-44
2022/04/06 04:27:51;;;;;;;31.27;12.20;;;9.20;99.90;;;;;;5052950;28;20133;-43
2022/04/06 04:30:21;;;;;;;27.00;11.45;;;9.20;99.90;;;;;;5051854;28;20496;-43
2022/04/06 04:32:48;;;;;;;28.23;11.73;;;9.20;99.90;;;;;;5052245;28;20041;-44
2022/04/06 04:35:15;;;;;;;30.15;10.52;;;9.20;99.90;;;;;;5051250;28;20063;-43
2022/04/06 04:37:42;;;;;;;26.95;9.35;;;9.10;99.90;;;;;;5051563;28;20055;-44
2022/04/06 04:40:10;;;;;;;31.13;10.32;;;9.10;99.90;;;;;;5049979;28;20382;-44
2022/04/06 04:42:36;;;;;;;35.38;9.93;;;9.10;99.90;;;;;;5050828;28;20041;-44
2022/04/06 04:45:04;;;;;;;30.58;9.70;;;9.10;99.90;;;;;;5050846;28;20057;-44
2022/04/06 04:47:33;;;;;;;24.45;8.95;;;9.10;99.90;;;;;;5038835;28;20045;-43
2022/04/06 04:49:59;;;;;;;27.33;8.32;;;9.10;99.90;;;;;;5032163;28;20482;-44
2022/04/06 04:52:26;;;;;;;22.58;7.32;;;9.10;99.90;;;;;;5035706;28;20048;-44
2022/04/06 04:54:53;;;;;;;34.92;8.05;;;9.10;99.90;;;;;;5052566;28;20069;-45
2022/04/06 04:57:19;;;;;;;20.75;6.75;;;9.10;99.90;;;;;;5042941;28;20145;-45
2022/04/06 04:59:46;;;;;;;21.50;6.75;;;9.10;99.90;;;;;;5051559;28;20482;-43
2022/04/06 05:02:13;;;;;;;19.52;6.63;;;9.00;99.90;;;;;;5048100;28;20481;-44
2022/04/06 05:04:41;;;;;;;24.40;6.82;;;9.00;99.90;;;;;;5040556;28;20077;-44
2022/04/06 05:07:07;;;;;;;24.67;6.97;;;9.00;99.90;;;;;;5045840;28;20051;-45
2022/04/06 05:09:34;;;;;;;21.40;5.72;;;9.00;99.90;;;;;;5050688;28;20049;-45
2022/04/06 05:12:01;;;;;;;25.90;6.05;;;9.00;99.90;;;;;;5052241;28;20051;-45
2022/04/06 05:14:27;;;;;;;20.85;5.63;;;9.00;99.90;;;;;;5047217;28;20501;-44
2022/04/06 05:16:54;;;;;;;25.27;6.03;;;9.00;99.90;;;;;;5050884;28;20052;-45
2022/04/06 05:19:21;;;;;;;19.65;5.35;;;9.00;99.90;;;;;;5050523;28;20045;-44
2022/04/06 05:21:49;;;;;;;25.17;5.43;;;9.00;99.90;;;;;;5050407;28;20503;-45
2022/04/06 05:24:16;;;;;;;28.88;6.05;;;9.00;99.90;;;;;;5056361;28;20481;-45
2022/04/06 05:26:42;;;;;;;18.73;4.88;;;8.90;99.90;;;;;;5054852;28;20045;-44
2022/04/06 05:29:09;;;;;;;20.27;5.28;;;8.90;99.90;;;;;;5053586;28;20411;-45
2022/04/06 05:31:36;;;;;;;23.30;5.93;;;8.90;99.90;;;;;;5053139;28;20061;-44
2022/04/06 05:34:02;;;;;;;17.63;5.43;;;8.90;99.90;;;;;;5048658;28;20045;-44
2022/04/06 05:36:29;;;;;;;19.52;5.78;;;8.90;99.90;;;;;;5054173;28;20126;-44
2022/04/06 05:38:57;;;;;;;18.70;5.85;;;8.90;99.90;;;;;;5041522;28;20524;-44
2022/04/06 05:41:24;;;;;;;23.15;5.90;;;8.90;99.90;;;;;;5051347;28;20580;-45
2022/04/06 05:43:51;;;;;;;18.92;5.35;;;8.90;99.90;;;;;;5040781;28;20049;-45
2022/04/06 05:46:17;;;;;;;22.23;5.88;;;8.90;99.90;;;;;;5049915;28;20133;-45
2022/04/06 05:48:44;;;;;;;17.90;5.55;;;8.90;99.90;;;;;;5035805;28;20049;-45
2022/04/06 05:51:11;;;;;;;21.17;6.00;;;8.90;99.90;;;;;;5035889;28;20045;-45
2022/04/06 05:53:37;;;;;;;19.60;5.63;;;8.90;99.90;;;;;;5034564;28;20059;-45
2022/04/06 05:56:06;;;;;;;21.60;5.68;;;8.90;99.90;;;;;;5036116;28;20482;-44
2022/04/06 05:58:33;;;;;;;23.13;6.07;;;8.90;99.90;;;;;;5035851;28;20088;-44
2022/04/06 06:00:59;;;;;;;28.40;5.53;;;8.90;99.90;;;;;;5047927;28;20053;-45
2022/04/06 06:03:26;;;;;;;20.02;5.32;;;8.90;99.90;;;;;;5055492;28;20047;-44
2022/04/06 06:05:53;;;;;;;18.83;4.85;;;8.90;99.90;;;;;;5055501;28;20049;-46
2022/04/06 06:08:19;;;;;;;18.05;5.55;;;8.90;99.90;;;;;;5054623;28;20135;-43
2022/04/06 06:10:46;;;;;;;17.38;4.93;;;8.90;99.90;;;;;;5055614;28;20053;-44
2022/04/06 06:13:14;;;;;;;16.55;4.90;;;8.90;99.90;;;;;;5055597;28;20055;-44
2022/04/06 06:15:41;;;;;;;17.08;4.82;;;8.80;99.90;;;;;;5055291;28;20553;-45
2022/04/06 06:18:08;;;;;;;21.48;5.28;;;8.90;99.90;;;;;;5055440;28;20053;-44
2022/04/06 06:20:35;;;;;;;17.52;5.03;;;8.80;99.90;;;;;;5054104;28;20094;-44
2022/04/06 06:23:01;;;;;;;20.05;5.50;;;8.90;99.90;;;;;;5055409;28;20300;-45
2022/04/06 06:25:28;;;;;;;15.50;4.30;;;8.80;99.90;;;;;;5055070;28;20060;-44
2022/04/06 06:27:58;;;;;;;19.88;5.32;;;8.90;99.90;;;;;;5055325;28;20413;-44
2022/04/06 06:30:27;;;;;;;14.88;4.70;;;8.80;99.90;;;;;;5054881;28;20049;-44
2022/04/06 06:32:53;;;;;;;14.50;4.40;;;8.90;99.90;;;;;;5055185;28;20052;-45
2022/04/06 06:35:21;;;;;;;14.40;3.65;;;8.80;99.90;;;;;;5069884;28;20048;-45
2022/04/06 06:37:47;;;;;;;18.35;4.13;;;8.80;99.90;;;;;;5053622;28;20049;-44
2022/04/06 06:40:14;;;;;;;15.38;3.65;;;8.80;99.90;;;;;;5055189;28;20238;-43
2022/04/06 06:42:41;;;;;;;13.60;3.80;;;8.80;99.90;;;;;;5054794;28;20061;-44
2022/04/06 06:45:08;;;;;;;15.57;4.20;;;8.80;99.90;;;;;;5054836;28;20057;-43
2022/04/06 06:47:36;;;;;;;18.60;3.75;;;8.80;99.90;;;;;;5053867;28;20136;-45
2022/04/06 06:50:03;;;;;;;16.92;3.70;;;8.80;99.90;;;;;;5054744;28;20140;-44
2022/04/06 06:52:34;;;;;;;15.70;3.58;;;8.80;99.90;;;;;;5054812;28;20084;-43
2022/04/06 06:55:00;;;;;;;15.00;3.97;;;8.80;99.90;;;;;;5070207;28;20081;-43
2022/04/06 06:57:27;;;;;;;15.00;3.83;;;8.80;99.90;;;;;;5070471;28;20055;-44
2022/04/06 06:59:54;;;;;;;21.85;3.95;;;8.80;99.90;;;;;;5057561;28;20050;-45
2022/04/06 07:02:21;;;;;;;17.17;3.95;;;8.80;99.90;;;;;;5034701;28;20060;-44
2022/04/06 07:04:49;;;;;;;13.02;3.35;;;8.90;99.90;;;;;;5033175;28;20053;-44
2022/04/06 07:07:16;;;;;;;19.70;4.03;;;8.90;99.90;;;;;;5033681;28;20573;-44
2022/04/06 07:09:42;;;;;;;17.42;3.33;;;8.90;99.90;;;;;;5033385;28;20060;-43
2022/04/06 07:12:10;;;;;;;18.45;3.75;;;8.90;99.90;;;;;;5050999;28;20045;-45
2022/04/06 07:14:37;;;;;;;13.30;3.58;;;8.90;99.90;;;;;;5054084;28;20047;-44
2022/04/06 07:17:04;;;;;;;18.30;4.20;;;8.90;99.90;;;;;;5069953;28;20144;-45
2022/04/06 07:19:31;;;;;;;21.55;4.03;;;8.90;99.90;;;;;;5054111;28;20049;-44
2022/04/06 07:21:59;;;;;;;17.90;4.05;;;8.90;99.90;;;;;;5054430;28;20404;-43
2022/04/06 07:24:26;;;;;;;20.27;4.50;;;8.90;99.90;;;;;;5069852;28;20131;-43
2022/04/06 07:26:52;;;;;;;18.40;4.18;;;8.90;99.90;;;;;;5054134;28;20079;-44
2022/04/06 07:29:19;;;;;;;28.83;4.93;;;8.90;99.90;;;;;;5054187;28;20055;-44
2022/04/06 07:31:46;;;;;;;18.75;4.22;;;9.00;99.90;;;;;;5053967;28;20088;-43
2022/04/06 07:34:12;;;;;;;16.15;4.65;;;8.90;99.90;;;;;;5053888;28;20382;-43
2022/04/06 07:36:39;;;;;;;18.17;4.78;;;8.90;99.90;;;;;;5054048;28;20053;-43
2022/04/06 07:39:07;;;;;;;12.75;3.78;;;8.90;99.90;;;;;;5069606;28;20053;-44
2022/04/06 07:41:34;;;;;;;22.80;4.68;;;9.00;99.90;;;;;;5052553;28;20122;-44
2022/04/06 07:44:00;;;;;;;20.52;4.18;;;8.90;99.90;;;;;;5052607;28;20106;-43
2022/04/06 07:46:27;;;;;;;15.02;4.57;;;9.00;99.90;;;;;;5051711;28;20056;-44
2022/04/06 07:48:54;;;;;;;18.02;4.30;;;9.00;99.90;;;;;;5053427;28;20083;-44
2022/04/06 07:51:20;;;;;;;21.42;4.78;;;9.00;99.90;;;;;;5053822;28;20393;-45
2022/04/06 07:53:47;;;;;;;18.42;4.38;;;9.00;99.90;;;;;;5053497;28;20049;-44
2022/04/06 07:56:15;;;;;;;20.75;4.53;;;9.00;99.90;;;;;;5053587;28;20041;-44
2022/04/06 07:58:42;;;;;;;25.65;5.03;;;9.00;99.90;;;;;;5053421;28;20044;-44
2022/04/06 08:01:09;;;;;;;24.55;4.90;;;9.10;99.90;;;;;;5052367;28;20061;-44
2022/04/06 08:03:36;;;;;;;22.10;4.78;;;9.10;99.90;;;;;;5052157;28;20367;-44
2022/04/06 08:06:03;;;;;;;19.23;5.55;;;9.20;99.90;;;;;;5052529;28;20049;-45
2022/04/06 08:08:30;;;;;;;18.50;5.18;;;9.20;99.90;;;;;;5053323;28;20084;-44
2022/04/06 08:10:57;;;;;;;21.02;5.05;;;9.20;99.90;;;;;;5052988;28;20056;-45
2022/04/06 08:13:25;;;;;;;21.15;5.28;;;9.20;99.90;;;;;;5053238;28;20060;-43
2022/04/06 08:15:52;;;;;;;23.55;5.60;;;9.30;99.90;;;;;;5052173;28;20470;-43
2022/04/06 08:18:19;;;;;;;16.60;5.53;;;9.30;99.90;;;;;;5052846;28;20115;-42
2022/04/06 08:20:46;;;;;;;28.15;6.38;;;9.30;99.90;;;;;;5053205;28;20127;-43
2022/04/06 08:23:13;;;;;;;22.63;5.93;;;9.30;99.90;;;;;;5053242;28;20053;-44
2022/04/06 08:25:40;;;;;;;25.70;6.63;;;9.30;99.90;;;;;;5051779;28;20439;-44
2022/04/06 08:28:08;;;;;;;21.40;6.53;;;9.30;99.90;;;;;;5053043;28;20091;-44
2022/04/06 08:30:39;;;;;;;24.60;6.25;;;9.40;99.90;;;;;;5052930;28;20084;-44
2022/04/06 08:33:06;;;;;;;;;;;9.40;99.90;;;;;;5053245;28;20131;-44
2022/04/06 08:35:33;;;;;;;19.80;6.68;;;9.40;99.90;;;;;;5052987;28;19921;-44
2022/04/06 08:37:59;;;;;;;26.05;6.30;;;9.40;99.90;;;;;;5052905;28;20060;-44
2022/04/06 08:40:26;;;;;;;23.13;6.00;;;9.40;99.90;;;;;;5052622;28;20400;-44
2022/04/06 08:42:53;;;;;;;22.42;5.63;;;9.40;99.90;;;;;;5051688;28;20051;-44
2022/04/06 08:45:19;;;;;;;21.90;5.53;;;9.40;99.90;;;;;;5051474;28;20056;-44
2022/04/06 08:47:49;;;;;;;18.17;5.50;;;9.40;99.90;;;;;;5052518;28;20045;-44
2022/04/06 08:50:17;;;;;;;17.08;4.90;;;9.40;99.90;;;;;;5052890;28;20041;-43
2022/04/06 08:52:44;;;;;;;22.00;5.97;;;9.40;99.90;;;;;;5052693;28;20139;-43
2022/04/06 08:55:12;;;;;;;25.42;4.95;;;9.40;99.90;;;;;;5051163;28;20063;-44
2022/04/06 08:57:39;;;;;;;21.60;4.63;;;9.40;99.90;;;;;;5051250;28;20053;-44
2022/04/06 09:00:07;;;;;;;20.98;5.25;;;9.40;99.90;;;;;;5052472;28;20409;-44
2022/04/06 09:02:34;;;;;;;25.05;6.30;;;9.30;99.90;;;;;;5051706;28;20081;-44
2022/04/06 09:05:03;;;;;;;17.90;4.40;;;9.30;99.90;;;;;;5052473;28;20127;-44
2022/04/06 09:07:30;;;;;;;19.40;4.45;;;9.30;99.90;;;;;;5052527;28;20052;-43
2022/04/06 09:09:58;;;;;;;22.85;4.70;;;9.30;99.90;;;;;;5051212;28;20053;-42
2022/04/06 09:12:25;;;;;;;14.43;3.58;;;9.40;99.90;;;;;;5052470;28;20047;-44
2022/04/06 09:15:04;;;;;;;19.63;4.15;;;9.40;99.90;;;;;;5052357;28;20049;-43
2022/04/06 09:17:30;;;;;;;20.25;4.35;;;9.40;99.90;;;;;;5051689;28;20056;-43
2022/04/06 09:19:58;;;;;;;19.08;4.65;;;9.50;99.90;;;;;;5052507;28;20136;-44
2022/04/06 09:22:30;;;;;;;18.45;4.03;;;9.70;99.90;;;;;;5052343;28;20055;-43
2022/04/06 09:24:57;;;;;;;;;;;9.80;99.90;;;;;;5052576;28;20508;-44
2022/04/06 09:27:29;;;;;;;14.43;3.58;;;9.90;99.90;;;;;;5051103;28;20011;-44
2022/04/06 09:29:55;;;;;;;;;;;9.90;99.90;;;;;;5051492;28;20556;-44
2022/04/06 09:32:22;;;;;;;13.27;3.83;;;10.00;99.90;;;;;;5052424;28;20372;-44
2022/04/06 09:34:49;;;;;;;15.75;4.30;;;10.00;99.90;;;;;;5052353;28;20048;-45
2022/04/06 09:37:22;;;;;;;13.00;3.90;;;10.00;99.90;;;;;;5051121;28;20059;-44
2022/04/06 09:39:50;;;;;;;13.02;3.72;;;10.00;99.90;;;;;;5050901;28;20095;-45
2022/04/06 09:42:20;;;;;;;15.32;4.25;;;10.00;99.90;;;;;;5051656;28;20097;-46
2022/04/06 09:47:40;;;;;;;12.10;4.07;;;10.00;99.90;;;;;;5052087;28;20044;-44
2022/04/06 09:50:15;;;;;;;16.85;3.72;;;10.00;99.90;;;;;;5051312;28;20114;-44
2022/04/06 09:52:42;;;;;;;13.93;4.25;;;10.10;99.90;;;;;;5051923;28;20049;-45
2022/04/06 09:55:11;;;;;;;12.32;4.30;;;10.10;99.90;;;;;;5051665;28;20049;-45
2022/04/06 09:57:44;;;;;;;19.10;4.78;;;10.10;99.90;;;;;;5050962;28;20048;-46
2022/04/06 10:00:13;;;;;;;19.23;5.00;;;10.10;99.90;;;;;;5051028;28;20111;-42
2022/04/06 10:02:41;;;;;;;22.73;5.75;;;10.10;99.90;;;;;;5051992;28;20057;-43
2022/04/06 10:05:08;;;;;;;18.83;5.30;;;10.20;99.90;;;;;;5051742;28;20067;-44
2022/04/06 10:07:35;;;;;;;16.75;5.70;;;10.20;99.90;;;;;;5051874;28;20421;-45
2022/04/06 10:10:02;;;;;;;19.42;5.35;;;10.20;99.90;;;;;;5053264;28;20132;-44
2022/04/06 10:12:30;;;;;;;17.45;5.07;;;10.30;99.90;;;;;;5055610;28;20184;-44
2022/04/06 10:14:57;;;;;;;20.25;5.70;;;10.30;99.90;;;;;;5054526;28;20052;-43
2022/04/06 10:17:24;;;;;;;15.55;5.00;;;10.30;99.90;;;;;;5054233;28;20477;-45
2022/04/06 10:19:53;;;;;;;17.55;5.82;;;10.40;99.90;;;;;;5055291;28;20085;-45
2022/04/06 10:22:22;;;;;;;19.17;5.70;;;10.40;99.90;;;;;;5055258;28;20369;-46
2022/04/06 10:24:55;;;;;;;18.00;5.32;;;10.40;99.90;;;;;;5054341;28;20057;-44
2022/04/06 10:27:25;;;;;;;21.05;6.18;;;10.50;99.90;;;;;;5054302;28;20056;-45
2022/04/06 10:30:15;;;;;;;20.00;5.88;;;10.50;99.90;;;;;;5055361;28;20059;-45
2022/04/06 10:32:42;;;;;;;21.50;5.43;;;10.50;99.90;;;;;;5054987;28;20057;-45
2022/04/06 10:35:20;;;;;;;19.65;5.60;;;10.40;99.90;;;;;;5055373;28;20083;-45
2022/04/06 10:37:49;;;;;;;18.67;5.50;;;10.50;99.90;;;;;;5055092;28;20136;-44
2022/04/06 10:40:16;;;;;;;17.80;5.93;;;10.50;99.90;;;;;;5053837;28;20044;-44
2022/04/06 10:42:45;;;;;;;18.95;5.50;;;10.50;99.90;;;;;;5053843;28;20053;-44
2022/04/06 10:45:37;;;;;;;21.88;6.20;;;10.50;99.90;;;;;;5054682;28;20049;-45
2022/04/06 10:48:13;;;;;;;15.93;5.95;;;10.50;99.90;;;;;;5054963;28;20056;-44
2022/04/06 10:50:40;;;;;;;21.25;5.93;;;10.40;99.90;;;;;;5053981;28;20044;-44
2022/04/06 10:53:29;;;;;;;15.65;6.13;;;10.40;99.90;;;;;;5054552;28;20053;-42
2022/04/06 10:56:01;;;;;;;18.15;5.20;;;10.40;99.90;;;;;;5054746;28;20413;-44
2022/04/06 10:58:27;;;;;;;;;;;10.40;99.90;;;;;;5054310;28;20144;-43
2022/04/06 11:01:19;;;;;;;18.30;5.45;;;10.30;99.90;;;;;;5054784;28;19921;-43
2022/04/06 11:03:56;;;;;;;18.15;5.57;;;10.40;99.90;;;;;;5044605;28;20052;-43
2022/04/06 11:06:49;;;;;;;21.20;6.80;;;10.40;99.90;;;;;;5054378;28;20045;-44
2022/04/06 11:12:10;;;;;;;19.25;7.30;;;10.40;99.90;;;;;;5055500;28;20044;-45
2022/04/06 11:14:37;;;;;;;18.15;7.50;;;10.40;99.90;;;;;;5072980;28;20480;-44
2022/04/06 11:17:20;;;;;;;18.80;7.63;;;10.40;99.90;;;;;;5061856;28;20132;-44
2022/04/06 11:19:50;;;;;;;23.75;8.85;;;10.40;99.90;;;;;;5052113;28;20048;-44
2022/04/06 11:22:16;;;;;;;20.90;7.80;;;10.40;99.90;;;;;;5049662;28;20055;-43
2022/04/06 11:24:43;;;;;;;21.08;8.50;;;10.40;99.90;;;;;;5049650;28;20225;-44
2022/04/06 11:27:10;;;;;;;17.20;7.63;;;10.40;99.90;;;;;;5052099;28;20516;-45
2022/04/06 11:29:37;;;;;;;19.05;7.95;;;10.40;99.90;;;;;;5053605;28;20056;-45
2022/04/06 11:32:06;;;;;;;21.17;8.55;;;10.40;99.90;;;;;;5046364;28;20053;-45
2022/04/06 11:34:34;;;;;;;21.55;8.43;;;10.50;99.90;;;;;;5052685;28;20041;-45
2022/04/06 11:37:01;;;;;;;21.38;8.30;;;10.50;99.90;;;;;;5052548;28;20049;-45
2022/04/06 11:39:29;;;;;;;21.25;8.85;;;10.50;99.90;;;;;;5053444;28;20063;-45
2022/04/06 11:41:55;;;;;;;24.33;8.55;;;10.60;99.90;;;;;;5052925;28;20080;-44
2022/04/06 11:44:24;;;;;;;23.00;8.90;;;10.60;99.90;;;;;;5045928;28;21371;-47
2022/04/06 11:46:51;;;;;;;17.83;8.63;;;10.60;99.90;;;;;;5045510;28;20049;-45
2022/04/06 11:49:24;;;;;;;19.95;8.10;;;10.60;99.90;;;;;;5050391;28;20059;-44
2022/04/06 11:51:51;;;;;;;21.38;8.30;;;10.60;99.90;;;;;;5051957;28;20053;-44
2022/04/06 11:54:18;;;;;;;29.48;9.77;;;10.60;99.90;;;;;;5047952;28;20136;-44
2022/04/06 11:56:48;;;;;;;20.70;8.68;;;10.70;99.90;;;;;;5046299;28;20053;-45
2022/04/06 11:59:16;;;;;;;23.27;9.27;;;10.70;99.90;;;;;;5051642;28;20124;-44
2022/04/06 12:01:43;;;;;;;16.33;8.57;;;10.70;99.90;;;;;;5051539;28;20048;-44
2022/04/06 12:04:13;;;;;;;21.05;9.13;;;10.80;99.90;;;;;;5047934;28;20088;-44
2022/04/06 12:06:41;;;;;;;21.70;9.52;;;10.80;99.90;;;;;;5037487;28;20053;-45
2022/04/06 12:09:08;;;;;;;21.45;8.98;;;11.00;99.90;;;;;;5048807;28;20049;-44
2022/04/06 12:11:35;;;;;;;24.83;9.23;;;11.10;99.90;;;;;;5044719;28;20057;-45
2022/04/06 12:14:02;;;;;;;23.63;8.75;;;11.20;99.90;;;;;;5047472;28;20057;-44
2022/04/06 12:16:29;;;;;;;24.30;8.77;;;11.20;99.90;;;;;;5042182;28;20456;-45
2022/04/06 12:18:55;;;;;;;26.30;8.98;;;11.30;99.90;;;;;;5035307;28;20076;-45
2022/04/06 12:21:24;;;;;;;20.73;8.40;;;11.30;99.90;;;;;;5036023;28;20049;-45
2022/04/06 12:23:52;;;;;;;20.73;8.80;;;11.30;99.90;;;;;;5039360;28;20063;-44
2022/04/06 12:26:19;;;;;;;24.38;8.52;;;11.40;99.90;;;;;;5041108;28;20107;-46
2022/04/06 12:28:48;;;;;;;17.83;7.97;;;11.40;99.90;;;;;;5052502;28;20045;-44
2022/04/06 12:31:14;;;;;;;22.70;8.15;;;11.50;99.90;;;;;;5048497;28;20107;-44
2022/04/06 12:33:42;;;;;;;19.48;7.80;;;11.50;99.90;;;;;;5048166;28;20106;-45
2022/04/06 12:36:11;;;;;;;21.70;7.15;;;11.50;99.90;;;;;;5040479;28;20055;-44
2022/04/06 12:38:38;;;;;;;18.13;7.00;;;11.50;99.90;;;;;;5049980;28;20055;-46
2022/04/06 12:41:09;;;;;;;15.10;6.60;;;11.40;99.90;;;;;;5043672;28;20085;-44
2022/04/06 12:43:40;;;;;;;16.42;6.57;;;11.50;99.90;;;;;;5033907;28;20053;-44
2022/04/06 12:46:07;;;;;;;18.98;7.20;;;11.40;99.90;;;;;;5052253;28;20045;-45
2022/04/06 12:48:33;;;;;;;16.52;7.03;;;11.40;99.90;;;;;;5049140;28;20055;-45
2022/04/06 12:51:18;;;;;;;18.50;7.80;;;11.50;99.90;;;;;;5036036;28;20511;-45
2022/04/06 12:53:49;;;;;;;19.25;7.07;;;11.60;99.90;;;;;;5033510;28;20057;-44